Time;durP1;ratioP1;P1;durP2;ratioP2;P2;SDS_P1;SDS_P2;PMS_P1;PMS_P2;Temp;Humidity;BMP_temperature;BMP_pressure;BME280_temperature;BME280_humidity;BME280_pressure;Samples;Min_cycle;Max_cycle;Signal;HPM_P1;HPM_P2
2023/03/26 00:02:00;;;;;;;8.70;1.73;;;7.80;99.90;;;;;;4999160;28;20786;-70
2023/03/26 00:04:27;;;;;;;10.43;2.23;;;7.80;99.90;;;;;;5016855;28;20201;-70
2023/03/26 00:06:54;;;;;;;7.30;2.23;;;7.80;99.90;;;;;;5014351;28;20228;-70
2023/03/26 00:09:21;;;;;;;9.40;2.50;;;7.80;99.90;;;;;;5002753;28;20244;-70
2023/03/26 00:11:48;;;;;;;4.30;1.67;;;7.80;99.90;;;;;;4996166;28;20201;-70
2023/03/26 00:14:16;;;;;;;6.57;1.67;;;7.90;99.90;;;;;;4989701;28;20577;-70
2023/03/26 00:16:46;;;;;;;7.77;2.23;;;7.80;99.90;;;;;;5018713;28;20217;-69
2023/03/26 00:19:13;;;;;;;4.27;1.70;;;7.80;99.90;;;;;;4996612;28;20550;-70
2023/03/26 00:21:40;;;;;;;8.93;2.00;;;7.80;99.90;;;;;;5014941;28;20199;-70
2023/03/26 00:24:10;;;;;;;9.67;2.20;;;7.80;99.90;;;;;;5006079;28;20202;-70
2023/03/26 00:26:39;;;;;;;8.20;2.10;;;7.80;99.90;;;;;;5000559;28;20202;-70
2023/03/26 00:29:09;;;;;;;6.83;1.50;;;7.80;99.90;;;;;;4981859;28;20210;-70
2023/03/26 00:31:38;;;;;;;7.47;1.67;;;7.70;99.90;;;;;;5018261;28;20846;-70
2023/03/26 00:34:07;;;;;;;4.07;1.90;;;7.70;99.90;;;;;;4995287;28;20719;-70
2023/03/26 00:36:36;;;;;;;7.13;1.73;;;7.60;99.90;;;;;;5016585;28;20224;-70
2023/03/26 00:39:05;;;;;;;3.33;1.70;;;7.70;99.90;;;;;;5015529;28;20308;-70
2023/03/26 00:41:35;;;;;;;13.27;2.23;;;7.60;99.90;;;;;;5008653;28;20201;-70
2023/03/26 00:44:02;;;;;;;12.40;2.10;;;7.70;99.90;;;;;;4970445;28;20382;-70
2023/03/26 00:46:31;;;;;;;7.60;2.07;;;7.70;99.90;;;;;;5017785;28;20855;-70
2023/03/26 00:48:58;;;;;;;9.73;1.90;;;7.70;99.90;;;;;;5005945;28;20830;-70
2023/03/26 00:51:28;;;;;;;6.37;1.93;;;7.70;99.90;;;;;;5012127;28;20802;-70
2023/03/26 00:53:55;;;;;;;7.17;1.73;;;7.70;99.90;;;;;;5016080;28;20217;-70
2023/03/26 00:56:22;;;;;;;7.73;1.83;;;7.70;99.90;;;;;;5003974;28;20792;-70
2023/03/26 00:58:49;;;;;;;7.43;1.83;;;7.70;99.90;;;;;;5002913;28;20206;-70
2023/03/26 01:01:19;;;;;;;10.37;1.90;;;7.70;99.90;;;;;;4959634;28;20598;-70
2023/03/26 01:03:47;;;;;;;16.70;2.07;;;7.60;99.90;;;;;;5017613;28;20545;-70
2023/03/26 01:06:31;;;;;;;5.93;2.20;;;7.70;99.90;;;;;;5000139;28;20428;-70
2023/03/26 01:09:03;;;;;;;5.77;2.03;;;7.70;99.90;;;;;;5016167;28;21069;-70
2023/03/26 01:11:32;;;;;;;6.73;1.80;;;7.70;99.90;;;;;;5022305;28;20367;-70
2023/03/26 01:14:02;;;;;;;5.80;1.53;;;7.70;99.90;;;;;;5006123;28;20912;-70
2023/03/26 01:16:37;;;;;;;11.00;2.30;;;7.70;99.90;;;;;;4975679;28;20202;-70
2023/03/26 01:19:09;;;;;;;7.40;1.67;;;7.70;99.90;;;;;;5000228;28;20193;-70
2023/03/26 01:21:38;;;;;;;5.80;1.73;;;7.70;99.90;;;;;;5017351;28;20268;-70
2023/03/26 01:24:08;;;;;;;5.03;1.30;;;7.70;99.90;;;;;;5022243;28;20198;-70
2023/03/26 01:26:47;;;;;;;10.23;2.13;;;7.70;99.90;;;;;;5021611;28;20204;-70
2023/03/26 01:29:20;;;;;;;4.20;1.80;;;7.70;99.90;;;;;;5010817;28;20510;-70
2023/03/26 01:31:55;;;;;;;8.03;1.77;;;7.70;99.90;;;;;;4968888;28;20216;-70
2023/03/26 01:34:32;;;;;;;6.77;2.23;;;7.70;99.90;;;;;;5014240;28;20214;-70
2023/03/26 01:37:12;;;;;;;9.13;2.53;;;7.70;99.90;;;;;;4991832;28;20217;-70
2023/03/26 01:39:48;;;;;;;11.37;2.27;;;7.70;99.90;;;;;;5020559;28;20232;-70
2023/03/26 01:42:20;;;;;;;9.27;2.30;;;7.70;99.90;;;;;;5014097;28;20280;-70
2023/03/26 01:44:54;;;;;;;5.80;2.00;;;7.70;99.90;;;;;;5019314;28;20573;-70
2023/03/26 01:47:21;;;;;;;8.77;1.73;;;7.70;99.90;;;;;;4983935;28;20232;-70
2023/03/26 01:49:48;;;;;;;5.43;1.90;;;7.70;99.90;;;;;;5016527;28;20650;-70
2023/03/26 01:52:19;;;;;;;7.63;2.10;;;7.70;99.90;;;;;;4994942;28;20298;-70
2023/03/26 01:54:47;;;;;;;9.97;1.67;;;7.70;99.90;;;;;;5012173;28;20205;-70
2023/03/26 01:57:23;;;;;;;9.10;2.27;;;7.70;99.90;;;;;;5007210;28;20198;-70
2023/03/26 02:00:14;;;;;;;4.20;1.70;;;7.70;99.90;;;;;;5013278;28;20204;-70
2023/03/26 02:02:53;;;;;;;8.27;1.70;;;7.70;99.90;;;;;;4979543;28;20249;-70
2023/03/26 02:05:25;;;;;;;8.80;1.77;;;7.70;99.90;;;;;;5015960;28;20664;-70
2023/03/26 02:07:57;;;;;;;11.87;3.00;;;7.60;99.90;;;;;;4982855;28;20629;-70
2023/03/26 02:10:28;;;;;;;13.07;1.83;;;7.60;99.90;;;;;;5018808;28;20232;-70
2023/03/26 02:12:55;;;;;;;7.37;2.23;;;7.60;99.90;;;;;;4997369;28;20522;-70
2023/03/26 02:15:22;;;;;;;9.50;2.03;;;7.60;99.90;;;;;;5016065;28;20201;-70
2023/03/26 02:17:51;;;;;;;8.30;1.70;;;7.70;99.90;;;;;;4978804;28;20220;-70
2023/03/26 02:20:18;;;;;;;8.50;1.90;;;7.60;99.90;;;;;;5015864;28;20225;-70
2023/03/26 02:22:46;;;;;;;8.23;2.13;;;7.50;99.90;;;;;;4955054;28;20984;-70
2023/03/26 02:25:14;;;;;;;4.20;1.27;;;7.50;99.90;;;;;;4995641;28;20630;-70
2023/03/26 02:27:43;;;;;;;7.17;1.80;;;7.60;99.90;;;;;;4977618;28;20209;-70
2023/03/26 02:30:13;;;;;;;5.10;1.50;;;7.50;99.90;;;;;;5007014;28;20229;-70
2023/03/26 02:32:40;;;;;;;8.50;1.60;;;7.50;99.90;;;;;;4982398;28;20787;-70
2023/03/26 02:35:07;;;;;;;4.00;1.23;;;7.50;99.90;;;;;;5003621;28;20253;-70
2023/03/26 02:37:34;;;;;;;10.23;2.03;;;7.50;99.90;;;;;;4991743;28;20580;-70
2023/03/26 02:40:01;;;;;;;13.93;2.50;;;7.50;99.90;;;;;;4993992;28;21132;-70
2023/03/26 02:42:28;;;;;;;4.57;1.43;;;7.50;99.90;;;;;;4990773;28;20361;-70
2023/03/26 02:44:56;;;;;;;10.30;1.73;;;7.50;99.90;;;;;;4993661;28;20221;-70
2023/03/26 02:47:22;;;;;;;11.60;1.90;;;7.40;99.90;;;;;;5003011;28;21415;-70
2023/03/26 02:49:49;;;;;;;6.10;1.70;;;7.40;99.90;;;;;;4968735;28;20440;-70
2023/03/26 02:52:17;;;;;;;9.10;1.80;;;7.40;99.90;;;;;;5002162;28;20266;-70
2023/03/26 02:54:44;;;;;;;15.63;1.83;;;7.40;99.90;;;;;;4976869;28;21375;-70
2023/03/26 02:57:11;;;;;;;4.67;2.17;;;7.40;99.90;;;;;;5013482;28;20194;-70
2023/03/26 02:59:38;;;;;;;10.13;1.73;;;7.40;99.90;;;;;;4975995;28;20221;-70
2023/03/26 03:02:06;;;;;;;12.80;2.10;;;7.30;99.90;;;;;;5003645;28;20320;-70
2023/03/26 03:04:32;;;;;;;4.07;1.50;;;7.30;99.90;;;;;;4976543;28;20218;-70
2023/03/26 03:06:59;;;;;;;3.47;1.60;;;7.30;99.90;;;;;;5007697;28;20518;-70
2023/03/26 03:09:26;;;;;;;10.70;1.63;;;7.30;99.90;;;;;;4997634;28;20209;-70
2023/03/26 03:11:53;;;;;;;6.97;1.50;;;7.20;99.90;;;;;;4993602;28;20267;-69
2023/03/26 03:14:20;;;;;;;5.80;1.83;;;7.30;99.90;;;;;;4995239;28;20197;-70
2023/03/26 03:16:46;;;;;;;9.70;1.70;;;7.20;99.90;;;;;;4993892;28;20626;-70
2023/03/26 03:19:15;;;;;;;8.63;1.33;;;7.20;99.90;;;;;;4977916;28;20212;-70
2023/03/26 03:21:42;;;;;;;6.27;1.47;;;7.20;99.90;;;;;;5007846;28;20228;-70
2023/03/26 03:24:10;;;;;;;11.03;2.00;;;7.20;99.90;;;;;;4998315;28;20515;-70
2023/03/26 03:26:37;;;;;;;11.53;2.20;;;7.10;99.90;;;;;;4997026;28;20194;-70
2023/03/26 03:29:04;;;;;;;12.10;1.80;;;7.10;99.90;;;;;;5002468;28;20214;-70
2023/03/26 03:31:31;;;;;;;5.63;1.60;;;;;;;;;;5004488;28;20810;-70
2023/03/26 03:33:57;;;;;;;8.57;2.50;;;7.00;99.90;;;;;;4972302;28;20865;-69
2023/03/26 03:36:29;;;;;;;8.47;1.77;;;7.00;99.90;;;;;;5021766;28;20666;-69
2023/03/26 03:39:01;;;;;;;10.17;1.97;;;7.00;99.90;;;;;;4999649;28;20248;-70
2023/03/26 03:41:28;;;;;;;7.43;2.30;;;6.90;99.90;;;;;;5010686;28;20673;-69
2023/03/26 03:43:55;;;;;;;9.07;2.87;;;6.90;99.90;;;;;;5010193;28;20623;-69
2023/03/26 03:46:21;;;;;;;6.00;2.10;;;6.90;99.90;;;;;;5003456;28;20201;-70
2023/03/26 03:48:48;;;;;;;6.57;2.10;;;6.90;99.90;;;;;;5006495;28;20695;-69
2023/03/26 03:51:15;;;;;;;4.07;1.53;;;6.90;99.90;;;;;;4983817;28;20230;-70
2023/03/26 03:53:45;;;;;;;14.63;2.47;;;6.90;99.90;;;;;;5011016;28;20868;-69
2023/03/26 03:56:13;;;;;;;9.93;1.93;;;6.90;99.90;;;;;;5000464;28;20235;-69
2023/03/26 03:58:41;;;;;;;14.40;2.10;;;6.90;99.90;;;;;;5009335;28;20205;-69
2023/03/26 04:01:08;;;;;;;12.27;2.33;;;6.90;99.90;;;;;;5007226;28;20204;-69
2023/03/26 04:03:37;;;;;;;10.53;2.27;;;6.80;99.90;;;;;;5008651;28;20701;-69
2023/03/26 04:06:05;;;;;;;15.47;2.57;;;6.90;99.90;;;;;;4984358;28;20209;-69
2023/03/26 04:08:32;;;;;;;7.83;1.77;;;6.80;99.90;;;;;;5011834;28;20700;-69
2023/03/26 04:11:01;;;;;;;16.73;3.00;;;6.80;99.90;;;;;;4998240;28;20836;-69
2023/03/26 04:13:27;;;;;;;10.13;2.37;;;6.80;99.90;;;;;;5015231;28;20673;-69
2023/03/26 04:15:54;;;;;;;12.77;2.07;;;6.80;99.90;;;;;;5009840;28;20944;-70
2023/03/26 04:18:22;;;;;;;8.17;1.77;;;6.80;99.90;;;;;;5003356;28;20202;-70
2023/03/26 04:20:49;;;;;;;12.83;2.60;;;6.80;99.90;;;;;;4983076;28;21102;-70
2023/03/26 04:23:17;;;;;;;9.57;2.47;;;7.00;99.90;;;;;;5011704;28;20206;-70
2023/03/26 04:25:48;;;;;;;15.63;2.37;;;6.90;99.90;;;;;;5003087;28;20205;-69
2023/03/26 04:28:27;;;;;;;15.07;2.83;;;6.90;99.90;;;;;;5015127;28;20214;-70
2023/03/26 04:30:55;;;;;;;15.93;2.13;;;6.90;99.90;;;;;;5010941;28;20917;-69
2023/03/26 04:33:23;;;;;;;14.00;2.63;;;7.00;99.90;;;;;;5003868;28;20521;-69
2023/03/26 04:35:51;;;;;;;11.87;2.30;;;7.00;99.90;;;;;;4984022;28;20213;-70
2023/03/26 04:38:18;;;;;;;8.07;2.10;;;7.00;99.90;;;;;;5016465;28;20207;-70
2023/03/26 04:40:46;;;;;;;13.70;2.60;;;6.90;99.90;;;;;;4981969;28;20671;-69
2023/03/26 04:43:15;;;;;;;8.33;2.23;;;6.90;99.90;;;;;;5013358;28;20205;-70
2023/03/26 04:45:44;;;;;;;11.17;2.20;;;7.00;99.90;;;;;;5015980;28;20210;-69
2023/03/26 04:48:13;;;;;;;12.07;2.30;;;7.00;99.90;;;;;;5024552;28;20202;-69
2023/03/26 04:50:40;;;;;;;11.97;2.00;;;7.00;99.90;;;;;;4986335;28;20776;-70
2023/03/26 04:53:12;;;;;;;15.13;2.70;;;7.00;99.90;;;;;;4996982;28;20213;-69
2023/03/26 04:55:45;;;;;;;10.03;2.37;;;7.00;99.90;;;;;;5000869;28;20216;-70
2023/03/26 04:58:12;;;;;;;12.23;1.77;;;6.90;99.90;;;;;;5008049;28;20218;-70
2023/03/26 05:00:40;;;;;;;20.13;2.20;;;6.90;99.90;;;;;;5014066;28;20807;-70
2023/03/26 05:03:11;;;;;;;9.50;2.13;;;6.90;99.90;;;;;;5020561;28;20225;-69
2023/03/26 05:05:39;;;;;;;8.23;1.93;;;6.90;99.90;;;;;;4985325;28;21603;-70
2023/03/26 05:08:06;;;;;;;10.97;2.10;;;6.90;99.90;;;;;;5005588;28;20683;-69
2023/03/26 05:10:32;;;;;;;14.27;2.10;;;6.90;99.90;;;;;;4995616;28;23557;-70
2023/03/26 05:12:59;;;;;;;12.30;2.47;;;6.90;99.90;;;;;;5008649;28;20205;-70
2023/03/26 05:15:26;;;;;;;9.90;2.07;;;6.80;99.90;;;;;;5013678;28;20205;-70
2023/03/26 05:17:54;;;;;;;13.37;2.23;;;6.80;99.90;;;;;;5021032;28;20201;-69
2023/03/26 05:20:25;;;;;;;9.23;1.97;;;6.80;99.90;;;;;;5015342;28;20331;-69
2023/03/26 05:22:52;;;;;;;10.00;2.40;;;6.70;99.90;;;;;;4965772;28;20573;-69
2023/03/26 05:25:19;;;;;;;6.00;2.10;;;6.70;99.90;;;;;;5005995;28;20239;-70
2023/03/26 05:27:47;;;;;;;12.90;2.47;;;6.70;99.90;;;;;;5009676;28;20747;-69
2023/03/26 05:30:16;;;;;;;11.67;2.40;;;6.80;99.90;;;;;;4996580;28;20206;-69
2023/03/26 05:32:43;;;;;;;8.00;1.93;;;6.80;99.90;;;;;;5016128;28;20351;-69
2023/03/26 05:35:10;;;;;;;8.93;1.87;;;6.70;99.90;;;;;;5018652;28;20224;-69
2023/03/26 05:37:38;;;;;;;13.20;2.17;;;6.80;99.90;;;;;;4971415;28;20426;-69
2023/03/26 05:40:10;;;;;;;9.83;1.83;;;6.80;99.90;;;;;;5011542;28;20284;-69
2023/03/26 05:42:38;;;;;;;9.50;1.73;;;6.70;99.90;;;;;;4996293;28;20696;-70
2023/03/26 05:45:06;;;;;;;4.37;1.60;;;6.70;99.90;;;;;;5004159;28;20279;-69
2023/03/26 05:47:33;;;;;;;11.80;2.10;;;6.70;99.90;;;;;;5016504;28;20205;-69
2023/03/26 05:50:00;;;;;;;6.90;1.70;;;6.70;99.90;;;;;;5013541;28;20570;-69
2023/03/26 05:52:27;;;;;;;11.97;2.10;;;6.70;99.90;;;;;;4981602;28;20854;-70
2023/03/26 05:54:56;;;;;;;8.07;1.83;;;6.70;99.90;;;;;;5015123;28;20661;-69
2023/03/26 05:57:27;;;;;;;8.43;1.83;;;6.80;99.90;;;;;;4997679;28;20197;-69
2023/03/26 05:59:54;;;;;;;10.30;2.03;;;6.80;99.90;;;;;;5004754;28;20210;-69
2023/03/26 06:02:20;;;;;;;8.93;1.87;;;6.80;99.90;;;;;;5014603;28;20225;-69
2023/03/26 06:04:47;;;;;;;5.53;1.83;;;6.80;99.90;;;;;;5011551;28;20197;-69
2023/03/26 06:07:15;;;;;;;12.17;1.90;;;6.70;99.90;;;;;;4999014;28;20672;-70
2023/03/26 06:09:42;;;;;;;14.03;2.50;;;6.70;99.90;;;;;;4997999;28;20210;-69
2023/03/26 06:12:11;;;;;;;9.80;2.53;;;6.70;99.90;;;;;;5012660;28;20601;-69
2023/03/26 06:14:38;;;;;;;11.40;2.57;;;6.70;99.90;;;;;;4999926;28;20415;-69
2023/03/26 06:17:05;;;;;;;8.13;1.80;;;6.70;99.90;;;;;;4996478;28;21390;-69
2023/03/26 06:19:31;;;;;;;9.20;2.00;;;6.60;99.90;;;;;;5013024;28;20994;-69
2023/03/26 06:21:58;;;;;;;8.87;1.90;;;6.60;99.90;;;;;;5005399;28;20202;-69
2023/03/26 06:24:25;;;;;;;9.17;2.13;;;6.50;99.90;;;;;;4981813;28;20217;-69
2023/03/26 06:26:52;;;;;;;13.40;1.67;;;6.50;99.90;;;;;;5007585;28;20199;-69
2023/03/26 06:29:20;;;;;;;11.30;2.13;;;6.40;99.90;;;;;;4999098;28;20232;-69
2023/03/26 06:31:47;;;;;;;10.47;1.87;;;6.40;99.90;;;;;;5003419;28;20880;-69
2023/03/26 06:34:14;;;;;;;9.37;1.70;;;6.40;99.90;;;;;;5012205;28;20204;-69
2023/03/26 06:36:41;;;;;;;5.77;1.53;;;6.30;99.90;;;;;;5011272;28;20215;-69
2023/03/26 06:39:07;;;;;;;9.57;1.80;;;6.40;99.90;;;;;;4976673;28;20216;-69
2023/03/26 06:41:34;;;;;;;6.43;1.87;;;6.30;99.90;;;;;;5005756;28;20205;-69
2023/03/26 06:44:01;;;;;;;10.10;2.30;;;6.40;99.90;;;;;;5012703;28;20202;-69
2023/03/26 06:46:29;;;;;;;6.03;1.70;;;6.30;99.90;;;;;;4997813;28;20337;-69
2023/03/26 06:48:56;;;;;;;9.20;2.60;;;6.30;99.90;;;;;;5003685;28;20201;-69
2023/03/26 06:51:23;;;;;;;9.33;1.83;;;6.30;99.90;;;;;;5003875;28;20224;-69
2023/03/26 06:53:50;;;;;;;8.83;1.80;;;6.30;99.90;;;;;;5012004;28;20198;-69
2023/03/26 06:56:16;;;;;;;9.30;1.67;;;6.30;99.90;;;;;;4982567;28;20233;-69
2023/03/26 06:58:43;;;;;;;8.13;1.87;;;6.30;99.90;;;;;;5001091;28;20423;-69
2023/03/26 07:01:10;;;;;;;12.23;2.10;;;6.30;99.90;;;;;;4983248;28;20577;-69
2023/03/26 07:03:38;;;;;;;10.40;2.03;;;6.30;99.90;;;;;;4996300;28;20383;-68
2023/03/26 07:06:06;;;;;;;9.97;1.63;;;6.30;99.90;;;;;;5007636;28;20229;-69
2023/03/26 07:08:32;;;;;;;9.07;2.30;;;6.40;99.90;;;;;;4998779;28;20202;-69
2023/03/26 07:10:59;;;;;;;8.87;2.67;;;6.30;99.90;;;;;;4976252;28;20220;-69
2023/03/26 07:13:26;;;;;;;12.17;2.47;;;6.40;99.90;;;;;;5012034;28;21084;-68
2023/03/26 07:15:53;;;;;;;8.50;1.83;;;6.40;99.90;;;;;;4986711;28;20218;-69
2023/03/26 07:18:19;;;;;;;15.37;3.10;;;6.40;99.90;;;;;;5000014;28;20587;-69
2023/03/26 07:20:48;;;;;;;13.27;2.30;;;6.40;99.90;;;;;;4995004;28;20319;-69
2023/03/26 07:23:18;;;;;;;8.17;1.93;;;6.40;99.90;;;;;;5000426;28;20236;-69
2023/03/26 07:25:47;;;;;;;8.67;1.77;;;6.40;99.90;;;;;;5008886;28;20202;-68
2023/03/26 07:28:24;;;;;;;15.57;1.70;;;6.40;99.90;;;;;;4975918;28;20287;-68
2023/03/26 07:31:00;;;;;;;8.13;2.20;;;6.40;99.90;;;;;;5005597;28;20256;-69
2023/03/26 07:33:34;;;;;;;5.97;1.80;;;6.40;99.90;;;;;;5003667;28;20224;-68
2023/03/26 07:36:14;;;;;;;11.47;2.50;;;6.40;99.90;;;;;;4998328;28;20516;-68
2023/03/26 07:39:02;;;;;;;6.73;1.80;;;6.50;99.90;;;;;;5005114;28;20245;-68
2023/03/26 07:41:35;;;;;;;15.27;3.03;;;6.40;99.90;;;;;;4979003;28;20700;-69
2023/03/26 07:44:22;;;;;;;4.90;1.37;;;6.50;99.90;;;;;;5016699;28;20201;-68
2023/03/26 07:46:52;;;;;;;7.80;1.90;;;6.50;99.90;;;;;;4999354;28;20402;-68
2023/03/26 07:49:20;;;;;;;10.23;2.13;;;6.50;99.90;;;;;;4982018;28;20418;-68
2023/03/26 07:51:48;;;;;;;9.53;2.13;;;6.50;99.90;;;;;;5013269;28;20235;-68
2023/03/26 07:54:16;;;;;;;9.23;2.17;;;6.50;99.90;;;;;;5000245;28;20200;-68
2023/03/26 07:56:51;;;;;;;11.17;2.60;;;6.60;99.90;;;;;;4961119;28;20220;-68
2023/03/26 07:59:24;;;;;;;8.23;2.30;;;6.50;99.90;;;;;;5019338;28;20207;-68
2023/03/26 08:02:07;;;;;;;8.23;1.73;;;6.50;99.90;;;;;;4986052;28;20907;-68
2023/03/26 08:04:51;;;;;;;8.13;1.80;;;6.50;99.90;;;;;;4982010;28;20233;-68
2023/03/26 08:07:29;;;;;;;9.83;1.83;;;6.50;99.90;;;;;;4971187;28;20195;-68
2023/03/26 08:10:04;;;;;;;14.17;1.93;;;6.50;99.90;;;;;;5009599;28;20245;-68
2023/03/26 08:12:40;;;;;;;15.53;2.60;;;6.60;99.90;;;;;;4960958;28;20226;-68
2023/03/26 08:15:17;;;;;;;12.40;2.30;;;6.60;99.90;;;;;;5013488;28;20208;-68
2023/03/26 08:17:50;;;;;;;19.67;2.87;;;6.60;99.90;;;;;;5001984;28;20220;-68
2023/03/26 08:20:29;;;;;;;8.40;1.80;;;6.60;99.90;;;;;;4999744;28;21095;-68
2023/03/26 08:23:05;;;;;;;11.07;2.30;;;6.70;99.90;;;;;;5004654;28;20209;-68
2023/03/26 08:25:34;;;;;;;12.40;1.90;;;6.70;99.90;;;;;;5001744;28;20204;-68
2023/03/26 08:28:14;;;;;;;11.13;2.10;;;6.80;99.90;;;;;;5006200;28;20200;-68
2023/03/26 08:30:42;;;;;;;12.93;3.03;;;6.90;99.90;;;;;;4987445;28;20523;-68
2023/03/26 08:33:15;;;;;;;8.73;1.70;;;6.80;99.90;;;;;;5007405;28;20738;-68
2023/03/26 08:35:43;;;;;;;14.33;2.40;;;6.80;99.90;;;;;;4995137;28;20720;-68
2023/03/26 08:38:12;;;;;;;8.97;1.87;;;6.90;99.90;;;;;;5000827;28;20197;-68
2023/03/26 08:41:13;;;;;;;7.77;1.50;;;6.90;99.90;;;;;;5009396;28;20302;-68
2023/03/26 08:44:13;;;;;;;10.60;2.10;;;6.90;99.90;;;;;;4954908;28;20797;-68
2023/03/26 08:47:10;;;;;;;18.57;2.40;;;6.80;99.90;;;;;;5009798;28;20739;-68
2023/03/26 08:50:02;;;;;;;10.27;2.13;;;6.80;99.90;;;;;;4992266;28;20407;-68
2023/03/26 08:53:03;;;;;;;5.10;1.53;;;6.70;99.90;;;;;;4985802;28;20409;-68
2023/03/26 08:55:53;;;;;;;9.57;2.30;;;6.70;99.90;;;;;;5012432;28;20228;-68
2023/03/26 08:58:56;;;;;;;11.17;2.07;;;6.70;99.90;;;;;;5004698;28;20240;-68
2023/03/26 09:01:51;;;;;;;11.83;2.53;;;6.80;99.90;;;;;;4987067;28;20221;-67
2023/03/26 09:05:15;;;;;;;15.70;2.00;;;6.90;99.90;;;;;;5001817;28;20845;-68
2023/03/26 09:08:06;;;;;;;10.13;2.27;;;6.90;99.90;;;;;;4974112;28;23960;-68
2023/03/26 09:11:08;;;;;;;11.07;2.07;;;7.00;99.90;;;;;;5015593;28;20204;-68
2023/03/26 09:14:07;;;;;;;11.10;2.60;;;7.10;99.90;;;;;;4993296;28;20252;-68
2023/03/26 09:17:14;;;;;;;10.43;2.07;;;7.10;99.90;;;;;;4957983;28;20935;-68
2023/03/26 09:20:19;;;;;;;16.27;2.83;;;7.00;99.90;;;;;;4994494;28;20282;-68
2023/03/26 09:23:19;;;;;;;17.70;2.50;;;7.10;99.90;;;;;;4982825;28;20411;-68
2023/03/26 09:26:11;;;;;;;6.50;2.00;;;7.10;99.90;;;;;;5000097;28;20371;-68
2023/03/26 09:29:19;;;;;;;15.57;2.83;;;7.20;99.90;;;;;;5007320;28;20845;-68
2023/03/26 09:32:14;;;;;;;7.27;1.93;;;7.20;99.90;;;;;;4955417;28;20420;-67
2023/03/26 09:35:08;;;;;;;15.30;2.03;;;7.20;99.90;;;;;;4989265;28;20377;-67
2023/03/26 09:37:51;;;;;;;11.73;2.30;;;7.30;99.90;;;;;;4961579;28;21241;-68
2023/03/26 09:40:21;;;;;;;10.07;2.37;;;7.20;99.90;;;;;;4999215;28;20216;-68
2023/03/26 09:42:56;;;;;;;10.93;2.73;;;7.30;99.90;;;;;;5013506;28;20189;-67
2023/03/26 09:45:51;;;;;;;10.03;3.17;;;7.30;99.90;;;;;;5004957;28;20580;-67
2023/03/26 09:48:38;;;;;;;9.23;2.57;;;7.20;99.90;;;;;;5011287;28;20202;-67
2023/03/26 09:51:28;;;;;;;5.13;1.77;;;7.10;99.90;;;;;;4985626;28;20866;-68
2023/03/26 09:54:19;;;;;;;18.77;2.80;;;7.20;99.90;;;;;;4956169;28;20431;-68
2023/03/26 09:56:56;;;;;;;11.50;2.40;;;7.20;99.90;;;;;;5007466;28;20202;-68
2023/03/26 09:59:52;;;;;;;7.67;2.33;;;7.20;99.90;;;;;;5009748;28;20224;-67
2023/03/26 10:02:40;;;;;;;16.10;3.30;;;7.20;99.90;;;;;;4974304;28;20233;-67
2023/03/26 10:05:28;;;;;;;19.17;2.50;;;7.20;99.90;;;;;;4966423;28;20225;-68
2023/03/26 10:08:27;;;;;;;9.27;2.70;;;7.10;99.90;;;;;;4966406;28;20232;-67
2023/03/26 10:11:01;;;;;;;13.10;2.10;;;7.10;99.90;;;;;;4981661;28;20212;-66
2023/03/26 10:13:33;;;;;;;14.17;2.20;;;7.20;99.90;;;;;;5005475;28;20231;-67
2023/03/26 10:16:13;;;;;;;7.43;1.87;;;7.40;99.90;;;;;;4983407;28;21071;-67
2023/03/26 10:18:49;;;;;;;11.17;2.50;;;7.40;99.90;;;;;;4970908;28;20228;-67
2023/03/26 10:21:28;;;;;;;11.87;2.20;;;7.40;99.90;;;;;;5000221;28;20379;-67
2023/03/26 10:24:19;;;;;;;14.17;2.70;;;7.50;99.90;;;;;;4991773;28;20216;-67
2023/03/26 10:27:04;;;;;;;6.70;1.63;;;7.50;99.90;;;;;;4990453;28;20344;-67
2023/03/26 10:29:55;;;;;;;16.30;2.10;;;7.50;99.90;;;;;;5006427;28;20631;-67
2023/03/26 10:32:30;;;;;;;7.03;1.97;;;7.60;99.90;;;;;;4993309;28;20590;-67
2023/03/26 10:35:09;;;;;;;9.23;2.20;;;7.60;99.90;;;;;;4947168;28;20217;-67
2023/03/26 10:37:49;;;;;;;5.90;1.97;;;7.60;99.90;;;;;;5008134;28;20200;-67
2023/03/26 10:40:22;;;;;;;7.20;1.70;;;7.60;99.90;;;;;;4979609;28;20201;-67
2023/03/26 10:43:19;;;;;;;15.37;2.53;;;7.50;99.90;;;;;;4983602;28;20228;-67
2023/03/26 10:46:12;;;;;;;5.43;1.50;;;7.40;99.90;;;;;;5000364;28;20634;-67
2023/03/26 10:49:11;;;;;;;9.43;2.13;;;7.50;99.90;;;;;;4987109;28;20209;-67
2023/03/26 10:51:50;;;;;;;12.13;2.10;;;7.40;99.90;;;;;;4961572;28;21804;-66
2023/03/26 10:54:30;;;;;;;7.83;1.77;;;7.50;99.90;;;;;;4993206;28;20320;-67
2023/03/26 10:56:57;;;;;;;9.23;1.80;;;7.40;99.90;;;;;;4995759;28;20315;-67
2023/03/26 10:59:26;;;;;;;9.27;1.87;;;7.40;99.90;;;;;;4999137;28;20699;-67
2023/03/26 11:02:03;;;;;;;10.87;2.30;;;7.50;99.90;;;;;;5006842;28;20997;-67
2023/03/26 11:04:40;;;;;;;7.97;2.00;;;7.50;99.90;;;;;;5006968;28;20201;-67
2023/03/26 11:07:15;;;;;;;10.13;1.90;;;7.50;99.90;;;;;;4992249;28;20232;-67
2023/03/26 11:09:48;;;;;;;8.73;1.60;;;7.40;99.90;;;;;;5008769;28;20682;-67
2023/03/26 11:12:25;;;;;;;13.97;1.97;;;7.40;99.90;;;;;;4996775;28;20198;-66
2023/03/26 11:15:01;;;;;;;8.47;2.00;;;7.40;99.90;;;;;;5009525;28;20200;-67
2023/03/26 11:17:38;;;;;;;3.67;1.33;;;7.30;99.90;;;;;;5010282;28;24437;-67
2023/03/26 11:20:10;;;;;;;7.23;1.53;;;7.30;99.90;;;;;;4963502;28;21073;-67
2023/03/26 11:22:50;;;;;;;10.03;1.80;;;7.30;99.90;;;;;;5015380;28;20458;-67
2023/03/26 11:25:31;;;;;;;6.70;2.00;;;7.40;99.90;;;;;;4991930;28;20367;-67
2023/03/26 11:28:09;;;;;;;15.40;2.43;;;7.50;99.90;;;;;;4997895;28;20207;-66
2023/03/26 11:30:45;;;;;;;6.20;1.83;;;7.80;99.90;;;;;;4998461;28;20935;-66
2023/03/26 11:33:18;;;;;;;9.27;2.00;;;7.80;99.90;;;;;;5009044;28;20236;-66
2023/03/26 11:35:47;;;;;;;8.73;1.60;;;7.60;99.90;;;;;;4967125;28;20205;-66
2023/03/26 11:38:19;;;;;;;6.10;2.13;;;7.60;99.90;;;;;;5000729;28;20208;-66
2023/03/26 11:40:52;;;;;;;10.30;2.57;;;7.70;99.90;;;;;;4998308;28;20198;-66
2023/03/26 11:43:24;;;;;;;7.07;1.70;;;7.90;99.90;;;;;;4998781;28;20841;-66
2023/03/26 11:45:52;;;;;;;10.00;2.10;;;7.70;99.90;;;;;;4986685;28;20206;-66
2023/03/26 11:48:26;;;;;;;9.47;2.37;;;7.90;99.90;;;;;;4975356;28;20273;-66
2023/03/26 11:50:58;;;;;;;7.00;1.50;;;7.90;99.90;;;;;;4959471;28;20874;-67
2023/03/26 11:53:29;;;;;;;13.50;2.03;;;8.00;99.90;;;;;;5010654;28;20737;-66
2023/03/26 11:56:02;;;;;;;11.27;1.97;;;8.20;99.90;;;;;;4985144;28;20667;-66
2023/03/26 11:58:32;;;;;;;14.83;2.00;;;8.20;99.90;;;;;;4984468;28;20212;-66
2023/03/26 12:01:03;;;;;;;8.40;1.97;;;8.10;99.90;;;;;;5014342;28;20422;-66
2023/03/26 12:03:30;;;;;;;7.37;1.87;;;8.10;99.90;;;;;;5004137;28;20856;-66
2023/03/26 12:06:01;;;;;;;6.03;1.13;;;7.90;99.90;;;;;;4974802;28;20568;-66
2023/03/26 12:08:32;;;;;;;6.20;1.60;;;7.80;99.90;;;;;;4996081;28;20198;-66
2023/03/26 12:11:05;;;;;;;8.47;1.87;;;7.90;99.90;;;;;;4992412;28;20967;-66
2023/03/26 12:13:40;;;;;;;9.53;1.57;;;7.90;99.90;;;;;;4968694;28;20842;-66
2023/03/26 12:16:11;;;;;;;5.03;1.97;;;7.80;99.90;;;;;;5006172;28;20220;-66
2023/03/26 12:18:42;;;;;;;12.37;2.07;;;7.70;99.90;;;;;;4981525;28;20249;-66
2023/03/26 12:21:11;;;;;;;4.43;1.40;;;7.70;99.90;;;;;;4968627;28;20710;-66
2023/03/26 12:23:44;;;;;;;9.87;1.50;;;7.60;99.90;;;;;;5008892;28;20292;-66
2023/03/26 12:26:19;;;;;;;8.93;1.87;;;7.70;99.90;;;;;;5008323;28;20220;-66
2023/03/26 12:28:48;;;;;;;12.07;2.10;;;7.90;99.90;;;;;;4969120;28;21114;-66
2023/03/26 12:31:17;;;;;;;8.63;1.70;;;8.00;99.90;;;;;;5031420;22;20228;-66
2023/03/26 12:33:46;;;;;;;8.60;1.90;;;8.00;99.90;;;;;;5040082;28;20402;-66
2023/03/26 12:36:32;;;;;;;9.43;1.80;;;8.00;99.90;;;;;;5069255;28;20225;-66
2023/03/26 12:38:59;;;;;;;11.47;1.63;;;7.80;99.90;;;;;;5046494;28;20551;-66
2023/03/26 12:41:35;;;;;;;14.10;2.60;;;7.70;99.90;;;;;;5055836;27;20207;-66
2023/03/26 12:44:22;;;;;;;13.77;1.63;;;7.60;99.90;;;;;;5012331;27;20207;-66
2023/03/26 12:46:52;;;;;;;5.93;1.70;;;7.70;99.90;;;;;;5060639;28;20219;-66
2023/03/26 12:49:20;;;;;;;12.40;1.73;;;7.80;99.90;;;;;;5043069;27;20250;-66
2023/03/26 12:51:50;;;;;;;9.33;1.50;;;7.90;99.90;;;;;;5056209;27;20633;-66
2023/03/26 12:54:31;;;;;;;12.53;2.40;;;8.10;99.90;;;;;;5025132;27;20326;-66
2023/03/26 12:57:15;;;;;;;9.07;2.23;;;8.30;99.90;;;;;;5060220;27;20200;-66
2023/03/26 12:59:53;;;;;;;9.60;2.07;;;8.30;99.90;;;;;;5026052;27;20754;-66
2023/03/26 13:02:39;;;;;;;6.77;1.83;;;8.10;99.90;;;;;;5063421;28;20685;-66
2023/03/26 13:05:23;;;;;;;11.77;2.67;;;7.80;99.90;;;;;;5057314;27;20208;-66
2023/03/26 13:08:00;;;;;;;9.83;2.03;;;7.80;99.90;;;;;;5025974;27;20227;-66
2023/03/26 13:10:39;;;;;;;4.90;1.57;;;7.70;99.90;;;;;;5067035;27;20196;-65
2023/03/26 13:13:28;;;;;;;10.40;2.00;;;7.60;99.90;;;;;;5066007;28;20196;-66
2023/03/26 13:16:00;;;;;;;10.63;1.77;;;7.70;99.90;;;;;;5037592;27;20207;-66
2023/03/26 13:18:47;;;;;;;7.00;1.80;;;7.80;99.90;;;;;;5049338;28;20200;-65
2023/03/26 13:21:22;;;;;;;7.87;2.07;;;7.80;99.90;;;;;;5066218;27;20250;-66
2023/03/26 13:23:54;;;;;;;13.10;2.20;;;7.90;99.90;;;;;;5031729;27;20237;-66
2023/03/26 13:26:39;;;;;;;7.87;1.87;;;7.80;99.90;;;;;;5059166;27;20394;-65